DLH898 EDDF-EYVI
Flight info
| Callsign | DLH898 |
|---|---|
| Flight time | 1h 36m |
| Altitude | 35000 |
| Route | TOBAK3W TOBAK N858 FEDZA Y172 MAG DCT GILAS M994 DENKO N858 BOKSU DCT IRKAL |
| Aircraft | A320/M-SDE3FGHIRWY/LB1 |
Departure
| Time | 2026-05-04 19:28 |
|---|---|
| Airport | Frankfurt Main Airport (EDDF) |
Arrival
| Time | 2026-05-04 21:05 |
|---|---|
| Airport | Vilnius International Airport (EYVI) |
| Time | Latitude | Longitude | Altitude | Speed | Heading |
|---|---|---|---|---|---|
| 2026-05-04 18:55 | 50.04721 | 8.58103 | 362 ft | 0 kts | 160° |
| 2026-05-04 19:20 | 50.04740 | 8.58092 | 363 ft | 4 kts | 160° |
| 2026-05-04 19:21 | 50.04762 | 8.58079 | 361 ft | 2 kts | 159° |
| 2026-05-04 19:21 | 50.04786 | 8.58070 | 359 ft | 4 kts | 184° |
| 2026-05-04 19:21 | 50.04808 | 8.58082 | 361 ft | 4 kts | 236° |
| 2026-05-04 19:21 | 50.04817 | 8.58113 | 365 ft | 1 kts | 250° |
| 2026-05-04 19:22 | 50.04817 | 8.58114 | 364 ft | 0 kts | 250° |
| 2026-05-04 19:24 | 50.04817 | 8.58113 | 358 ft | 0 kts | 250° |
| 2026-05-04 19:24 | 50.04807 | 8.58070 | 358 ft | 8 kts | 250° |
| 2026-05-04 19:24 | 50.04772 | 8.57977 | 360 ft | 12 kts | 219° |
| 2026-05-04 19:24 | 50.04686 | 8.57971 | 363 ft | 14 kts | 159° |
| 2026-05-04 19:25 | 50.04596 | 8.58024 | 363 ft | 11 kts | 160° |
| 2026-05-04 19:25 | 50.04564 | 8.58109 | 363 ft | 8 kts | 80° |
| 2026-05-04 19:25 | 50.04581 | 8.58180 | 368 ft | 5 kts | 69° |
| 2026-05-04 19:25 | 50.04589 | 8.58215 | 368 ft | 2 kts | 69° |
| 2026-05-04 19:26 | 50.04594 | 8.58234 | 368 ft | 4 kts | 69° |
| 2026-05-04 19:26 | 50.04614 | 8.58320 | 368 ft | 10 kts | 70° |
| 2026-05-04 19:26 | 50.04644 | 8.58442 | 374 ft | 15 kts | 69° |
| 2026-05-04 19:26 | 50.04636 | 8.58563 | 370 ft | 7 kts | 150° |
| 2026-05-04 19:27 | 50.04591 | 8.58589 | 371 ft | 7 kts | 160° |
| 2026-05-04 19:27 | 50.04547 | 8.58614 | 371 ft | 9 kts | 160° |
| 2026-05-04 19:27 | 50.04464 | 8.58493 | 370 ft | 31 kts | 249° |
| 2026-05-04 19:27 | 50.04302 | 8.57814 | 363 ft | 100 kts | 249° |
| 2026-05-04 19:28 | 50.03993 | 8.56518 | 358 ft | 153 kts | 249° |
| 2026-05-04 19:28 | 50.03601 | 8.54880 | 756 ft | 163 kts | 250° |
| 2026-05-04 19:28 | 50.03208 | 8.53222 | 1409 ft | 164 kts | 251° |
| 2026-05-04 19:28 | 50.02804 | 8.51487 | 1838 ft | 180 kts | 251° |
| 2026-05-04 19:29 | 50.02158 | 8.49704 | 2130 ft | 203 kts | 229° |
| 2026-05-04 19:29 | 50.00996 | 8.48392 | 2679 ft | 211 kts | 204° |
| 2026-05-04 19:29 | 49.99558 | 8.47871 | 3366 ft | 212 kts | 188° |
| 2026-05-04 19:29 | 49.98095 | 8.47547 | 4075 ft | 211 kts | 188° |
| 2026-05-04 19:30 | 49.96636 | 8.47224 | 4765 ft | 211 kts | 188° |
| 2026-05-04 19:30 | 49.95211 | 8.46690 | 5291 ft | 220 kts | 196° |
| 2026-05-04 19:30 | 49.93664 | 8.45981 | 5663 ft | 239 kts | 196° |
| 2026-05-04 19:30 | 49.92122 | 8.44979 | 6429 ft | 243 kts | 215° |
| 2026-05-04 19:31 | 49.91010 | 8.42999 | 7204 ft | 248 kts | 242° |
| 2026-05-04 19:31 | 49.90625 | 8.40390 | 8007 ft | 254 kts | 270° |
| 2026-05-04 19:31 | 49.91114 | 8.37724 | 8797 ft | 264 kts | 299° |
| 2026-05-04 19:31 | 49.92420 | 8.35741 | 9544 ft | 274 kts | 329° |
| 2026-05-04 19:32 | 49.94197 | 8.34487 | 10049 ft | 290 kts | 334° |
| 2026-05-04 19:32 | 49.96133 | 8.33234 | 10303 ft | 313 kts | 335° |
| 2026-05-04 19:32 | 49.98222 | 8.31903 | 10507 ft | 336 kts | 335° |
| 2026-05-04 19:32 | 50.00409 | 8.30511 | 10972 ft | 347 kts | 335° |
| 2026-05-04 19:33 | 50.02697 | 8.29212 | 11635 ft | 354 kts | 343° |
| 2026-05-04 19:33 | 50.05167 | 8.28735 | 12330 ft | 361 kts | 359° |
| 2026-05-04 19:33 | 50.07677 | 8.29258 | 13028 ft | 368 kts | 14° |
| 2026-05-04 19:33 | 50.10104 | 8.30495 | 13704 ft | 372 kts | 18° |
| 2026-05-04 19:34 | 50.12570 | 8.31798 | 14322 ft | 375 kts | 17° |
| 2026-05-04 19:34 | 50.15062 | 8.33117 | 14905 ft | 379 kts | 18° |
| 2026-05-04 19:34 | 50.17568 | 8.34442 | 15511 ft | 382 kts | 17° |
| 2026-05-04 19:34 | 50.20104 | 8.35779 | 16113 ft | 386 kts | 17° |
| 2026-05-04 19:35 | 50.22633 | 8.37108 | 16700 ft | 389 kts | 17° |
| 2026-05-04 19:35 | 50.25211 | 8.38462 | 17290 ft | 393 kts | 17° |
| 2026-05-04 19:35 | 50.27790 | 8.39975 | 17872 ft | 397 kts | 25° |
| 2026-05-04 19:35 | 50.30188 | 8.42160 | 18411 ft | 401 kts | 36° |
| 2026-05-04 19:36 | 50.32341 | 8.44976 | 18915 ft | 404 kts | 42° |
| 2026-05-04 19:36 | 50.34425 | 8.47883 | 19426 ft | 407 kts | 42° |
| 2026-05-04 19:36 | 50.36557 | 8.50850 | 19934 ft | 411 kts | 42° |
| 2026-05-04 19:36 | 50.38705 | 8.53835 | 20435 ft | 414 kts | 41° |
| 2026-05-04 19:37 | 50.40876 | 8.56851 | 20946 ft | 417 kts | 42° |
| 2026-05-04 19:37 | 50.43057 | 8.59888 | 21446 ft | 421 kts | 42° |
| 2026-05-04 19:37 | 50.45256 | 8.62945 | 21931 ft | 424 kts | 41° |
| 2026-05-04 19:37 | 50.47503 | 8.65978 | 22431 ft | 427 kts | 40° |
| 2026-05-04 19:38 | 50.49760 | 8.68967 | 22907 ft | 430 kts | 42° |
| 2026-05-04 19:38 | 50.51743 | 8.72488 | 23230 ft | 431 kts | 57° |
| 2026-05-04 19:38 | 50.53411 | 8.76390 | 23503 ft | 432 kts | 58° |
| 2026-05-04 19:38 | 50.55071 | 8.80341 | 23753 ft | 433 kts | 58° |
| 2026-05-04 19:39 | 50.56728 | 8.84325 | 23932 ft | 435 kts | 58° |
| 2026-05-04 19:39 | 50.58387 | 8.88337 | 24210 ft | 438 kts | 58° |
| 2026-05-04 19:39 | 50.60037 | 8.92330 | 24594 ft | 440 kts | 58° |
| 2026-05-04 19:39 | 50.61720 | 8.96397 | 24960 ft | 443 kts | 58° |
| 2026-05-04 19:40 | 50.63395 | 9.00431 | 25320 ft | 446 kts | 58° |
| 2026-05-04 19:40 | 50.65100 | 9.04530 | 25677 ft | 448 kts | 58° |
| 2026-05-04 19:40 | 50.66817 | 9.08656 | 26028 ft | 450 kts | 58° |
| 2026-05-04 19:40 | 50.68537 | 9.12806 | 26366 ft | 453 kts | 58° |
| 2026-05-04 19:41 | 50.70259 | 9.16984 | 26716 ft | 455 kts | 58° |
| 2026-05-04 19:41 | 50.71936 | 9.21251 | 27032 ft | 457 kts | 63° |
| 2026-05-04 19:41 | 50.73350 | 9.25698 | 27347 ft | 459 kts | 65° |
| 2026-05-04 19:41 | 50.74772 | 9.30233 | 27667 ft | 461 kts | 65° |
| 2026-05-04 19:42 | 50.76205 | 9.34793 | 27986 ft | 464 kts | 65° |
| 2026-05-04 19:42 | 50.77646 | 9.39380 | 28294 ft | 466 kts | 65° |
| 2026-05-04 19:42 | 50.79071 | 9.43929 | 28579 ft | 467 kts | 65° |
| 2026-05-04 19:42 | 50.80514 | 9.48550 | 28897 ft | 469 kts | 65° |
| 2026-05-04 19:43 | 50.81962 | 9.53202 | 29199 ft | 471 kts | 65° |
| 2026-05-04 19:43 | 50.83415 | 9.57879 | 29479 ft | 473 kts | 65° |
| 2026-05-04 19:43 | 50.84869 | 9.62566 | 29759 ft | 475 kts | 65° |
| 2026-05-04 19:43 | 50.86313 | 9.67225 | 30021 ft | 477 kts | 65° |
| 2026-05-04 19:44 | 50.87778 | 9.71957 | 30243 ft | 479 kts | 65° |
| 2026-05-04 19:44 | 50.89246 | 9.76706 | 30474 ft | 481 kts | 65° |
| 2026-05-04 19:44 | 50.90720 | 9.81477 | 30683 ft | 482 kts | 65° |
| 2026-05-04 19:44 | 50.91697 | 9.84648 | 30822 ft | 484 kts | 65° |
| 2026-05-04 19:45 | 50.93174 | 9.89463 | 31004 ft | 486 kts | 65° |
| 2026-05-04 19:45 | 50.94646 | 9.94292 | 31219 ft | 486 kts | 65° |
| 2026-05-04 19:45 | 50.96117 | 9.99133 | 31483 ft | 487 kts | 65° |
| 2026-05-04 19:45 | 50.97588 | 10.03977 | 31760 ft | 486 kts | 65° |
| 2026-05-04 19:46 | 50.99062 | 10.08823 | 32056 ft | 486 kts | 65° |
| 2026-05-04 19:46 | 51.00531 | 10.13654 | 32350 ft | 485 kts | 65° |
| 2026-05-04 19:46 | 51.01975 | 10.18412 | 32642 ft | 484 kts | 65° |
| 2026-05-04 19:46 | 51.03431 | 10.23229 | 32936 ft | 483 kts | 65° |
| 2026-05-04 19:47 | 51.04883 | 10.28054 | 33231 ft | 482 kts | 65° |
| 2026-05-04 19:47 | 51.06572 | 10.32650 | 33522 ft | 482 kts | 52° |
| 2026-05-04 19:47 | 51.08861 | 10.36574 | 33795 ft | 481 kts | 40° |
| 2026-05-04 19:47 | 51.11510 | 10.39810 | 34074 ft | 479 kts | 32° |
| 2026-05-04 19:48 | 51.14153 | 10.42916 | 34270 ft | 481 kts | 44° |
| 2026-05-04 19:48 | 51.16214 | 10.47118 | 34467 ft | 481 kts | 60° |
| 2026-05-04 19:48 | 51.17916 | 10.51725 | 34605 ft | 483 kts | 59° |
| 2026-05-04 19:48 | 51.19643 | 10.56319 | 34816 ft | 482 kts | 59° |
| 2026-05-04 19:49 | 51.21397 | 10.60873 | 34964 ft | 483 kts | 58° |
| 2026-05-04 19:49 | 51.24996 | 10.70034 | 34996 ft | 490 kts | 58° |
| 2026-05-04 19:50 | 51.28639 | 10.79284 | 34994 ft | 492 kts | 58° |
| 2026-05-04 19:50 | 51.32240 | 10.88527 | 34996 ft | 493 kts | 58° |
| 2026-05-04 19:51 | 51.35836 | 10.97886 | 34996 ft | 494 kts | 58° |
| 2026-05-04 19:51 | 51.39429 | 11.07272 | 34976 ft | 494 kts | 58° |
| 2026-05-04 19:52 | 51.43010 | 11.16634 | 34988 ft | 494 kts | 58° |
| 2026-05-04 19:52 | 51.46601 | 11.26042 | 34982 ft | 494 kts | 58° |
| 2026-05-04 19:53 | 51.50183 | 11.35471 | 34999 ft | 494 kts | 58° |
| 2026-05-04 19:53 | 51.53732 | 11.44848 | 34980 ft | 494 kts | 58° |
| 2026-05-04 19:54 | 51.57297 | 11.54295 | 34974 ft | 494 kts | 58° |
| 2026-05-04 19:54 | 51.60856 | 11.63770 | 34970 ft | 494 kts | 59° |
| 2026-05-04 19:55 | 51.64411 | 11.73272 | 34956 ft | 494 kts | 58° |
| 2026-05-04 19:55 | 51.67934 | 11.82715 | 34962 ft | 494 kts | 59° |
| 2026-05-04 19:56 | 51.71482 | 11.92258 | 34974 ft | 494 kts | 58° |
| 2026-05-04 19:56 | 51.74992 | 12.01740 | 34966 ft | 494 kts | 58° |
| 2026-05-04 19:57 | 51.78514 | 12.11298 | 34961 ft | 494 kts | 59° |
| 2026-05-04 19:57 | 51.82026 | 12.20867 | 34955 ft | 494 kts | 59° |
| 2026-05-04 19:58 | 51.85503 | 12.30377 | 34948 ft | 494 kts | 59° |
| 2026-05-04 19:58 | 51.88994 | 12.39960 | 34960 ft | 494 kts | 58° |
| 2026-05-04 19:59 | 51.92489 | 12.49569 | 34960 ft | 494 kts | 59° |
| 2026-05-04 19:59 | 51.95949 | 12.59132 | 34953 ft | 494 kts | 59° |
| 2026-05-04 20:00 | 51.99434 | 12.68792 | 34951 ft | 494 kts | 59° |
| 2026-05-04 20:00 | 52.02876 | 12.78386 | 34953 ft | 494 kts | 59° |
| 2026-05-04 20:01 | 52.06327 | 12.88047 | 34957 ft | 494 kts | 59° |
| 2026-05-04 20:01 | 52.09773 | 12.97693 | 34957 ft | 494 kts | 59° |
| 2026-05-04 20:02 | 52.13214 | 13.07380 | 34949 ft | 494 kts | 59° |
| 2026-05-04 20:02 | 52.16625 | 13.17037 | 34960 ft | 494 kts | 59° |
| 2026-05-04 20:03 | 52.20050 | 13.26746 | 34968 ft | 494 kts | 59° |
| 2026-05-04 20:03 | 52.23469 | 13.36502 | 34967 ft | 494 kts | 59° |
| 2026-05-04 20:04 | 52.26859 | 13.46201 | 34959 ft | 494 kts | 59° |
| 2026-05-04 20:04 | 52.30262 | 13.55966 | 34964 ft | 494 kts | 59° |
| 2026-05-04 20:05 | 52.33668 | 13.65765 | 34966 ft | 494 kts | 59° |
| 2026-05-04 20:05 | 52.37030 | 13.75486 | 34964 ft | 494 kts | 59° |
| 2026-05-04 20:06 | 52.40418 | 13.85335 | 34959 ft | 494 kts | 59° |
| 2026-05-04 20:06 | 52.43765 | 13.95114 | 34969 ft | 495 kts | 59° |
| 2026-05-04 20:07 | 52.47124 | 14.04977 | 34952 ft | 495 kts | 59° |
| 2026-05-04 20:07 | 52.50484 | 14.14857 | 34940 ft | 495 kts | 59° |
| 2026-05-04 20:08 | 52.53835 | 14.24748 | 34945 ft | 495 kts | 59° |
| 2026-05-04 20:08 | 52.57168 | 14.34615 | 34948 ft | 496 kts | 60° |
| 2026-05-04 20:09 | 52.60504 | 14.44553 | 34952 ft | 496 kts | 60° |
| 2026-05-04 20:09 | 52.63441 | 14.54822 | 34950 ft | 496 kts | 72° |
| 2026-05-04 20:10 | 52.65124 | 14.65786 | 34951 ft | 496 kts | 76° |
| 2026-05-04 20:10 | 52.66757 | 14.76874 | 34950 ft | 496 kts | 76° |
| 2026-05-04 20:11 | 52.68355 | 14.87867 | 34955 ft | 497 kts | 77° |
| 2026-05-04 20:11 | 52.69950 | 14.98961 | 34956 ft | 497 kts | 77° |
| 2026-05-04 20:12 | 52.71540 | 15.10085 | 34958 ft | 497 kts | 77° |
| 2026-05-04 20:12 | 52.73106 | 15.21123 | 34959 ft | 497 kts | 77° |
| 2026-05-04 20:13 | 52.74673 | 15.32245 | 34967 ft | 497 kts | 77° |
| 2026-05-04 20:13 | 52.76224 | 15.43362 | 34968 ft | 497 kts | 77° |
| 2026-05-04 20:14 | 52.77767 | 15.54435 | 34961 ft | 497 kts | 77° |
| 2026-05-04 20:14 | 52.79310 | 15.65608 | 34957 ft | 497 kts | 77° |
| 2026-05-04 20:15 | 52.80832 | 15.76780 | 34958 ft | 498 kts | 77° |
| 2026-05-04 20:15 | 52.82817 | 15.87649 | 34939 ft | 496 kts | 66° |
| 2026-05-04 20:16 | 52.85509 | 15.98185 | 34947 ft | 496 kts | 66° |
| 2026-05-04 20:16 | 52.88191 | 16.08729 | 34954 ft | 496 kts | 66° |
| 2026-05-04 20:17 | 52.90842 | 16.19234 | 34972 ft | 497 kts | 66° |
| 2026-05-04 20:17 | 52.93493 | 16.29824 | 34972 ft | 497 kts | 66° |
| 2026-05-04 20:18 | 52.96142 | 16.40438 | 34965 ft | 497 kts | 66° |
| 2026-05-04 20:18 | 52.98769 | 16.51002 | 34953 ft | 497 kts | 66° |
| 2026-05-04 20:19 | 53.01396 | 16.61624 | 34958 ft | 497 kts | 66° |
| 2026-05-04 20:19 | 53.04008 | 16.72227 | 34961 ft | 497 kts | 66° |
| 2026-05-04 20:20 | 53.06619 | 16.82903 | 34987 ft | 497 kts | 66° |
| 2026-05-04 20:20 | 53.09225 | 16.93586 | 34974 ft | 498 kts | 67° |
| 2026-05-04 20:21 | 53.11801 | 17.04214 | 34973 ft | 498 kts | 67° |
| 2026-05-04 20:21 | 53.15683 | 17.20286 | 34964 ft | 498 kts | 67° |
| 2026-05-04 20:22 | 53.18236 | 17.30940 | 34970 ft | 497 kts | 67° |
| 2026-05-04 20:22 | 53.20796 | 17.41692 | 34971 ft | 497 kts | 67° |
| 2026-05-04 20:23 | 53.23327 | 17.52397 | 34979 ft | 497 kts | 67° |
| 2026-05-04 20:23 | 53.25849 | 17.63141 | 34970 ft | 497 kts | 67° |
| 2026-05-04 20:24 | 53.28371 | 17.73943 | 34955 ft | 498 kts | 67° |
| 2026-05-04 20:24 | 53.30884 | 17.84666 | 34956 ft | 498 kts | 67° |
| 2026-05-04 20:25 | 53.33412 | 17.95508 | 34961 ft | 499 kts | 68° |
| 2026-05-04 20:25 | 53.35902 | 18.06310 | 34970 ft | 499 kts | 68° |
| 2026-05-04 20:26 | 53.38397 | 18.17182 | 34993 ft | 499 kts | 68° |
| 2026-05-04 20:26 | 53.40868 | 18.28000 | 34983 ft | 500 kts | 68° |
| 2026-05-04 20:27 | 53.43339 | 18.38896 | 34973 ft | 499 kts | 68° |
| 2026-05-04 20:27 | 53.45797 | 18.49816 | 34976 ft | 499 kts | 68° |
| 2026-05-04 20:28 | 53.48232 | 18.60681 | 34974 ft | 499 kts | 68° |
| 2026-05-04 20:28 | 53.50677 | 18.71627 | 34973 ft | 499 kts | 68° |
| 2026-05-04 20:29 | 53.53088 | 18.82587 | 34996 ft | 500 kts | 69° |
| 2026-05-04 20:29 | 53.55341 | 18.93568 | 34967 ft | 500 kts | 70° |
| 2026-05-04 20:30 | 53.57540 | 19.04681 | 34948 ft | 500 kts | 70° |
| 2026-05-04 20:30 | 53.59743 | 19.15744 | 34962 ft | 500 kts | 70° |
| 2026-05-04 20:31 | 53.61990 | 19.26867 | 34962 ft | 500 kts | 70° |
| 2026-05-04 20:31 | 53.64214 | 19.37908 | 34960 ft | 500 kts | 70° |
| 2026-05-04 20:32 | 53.66424 | 19.49032 | 34960 ft | 500 kts | 70° |
| 2026-05-04 20:32 | 53.68608 | 19.60139 | 34967 ft | 501 kts | 70° |
| 2026-05-04 20:33 | 53.70799 | 19.71316 | 34959 ft | 501 kts | 70° |
| 2026-05-04 20:33 | 53.72618 | 19.80638 | 34958 ft | 501 kts | 70° |
| 2026-05-04 20:34 | 53.74793 | 19.91848 | 34973 ft | 502 kts | 71° |
| 2026-05-04 20:34 | 53.76944 | 20.03008 | 34969 ft | 501 kts | 71° |
| 2026-05-04 20:35 | 53.79097 | 20.14248 | 34971 ft | 501 kts | 71° |
| 2026-05-04 20:35 | 53.81235 | 20.25481 | 34983 ft | 501 kts | 71° |
| 2026-05-04 20:36 | 53.83355 | 20.36670 | 34959 ft | 501 kts | 71° |
| 2026-05-04 20:36 | 53.85476 | 20.47925 | 34958 ft | 501 kts | 71° |
| 2026-05-04 20:37 | 53.87573 | 20.59104 | 34954 ft | 501 kts | 71° |
| 2026-05-04 20:37 | 53.89678 | 20.70408 | 34960 ft | 501 kts | 71° |
| 2026-05-04 20:38 | 53.91768 | 20.81700 | 34959 ft | 501 kts | 71° |
| 2026-05-04 20:38 | 53.93837 | 20.92931 | 34954 ft | 501 kts | 71° |
| 2026-05-04 20:39 | 53.95911 | 21.04254 | 34968 ft | 502 kts | 72° |
| 2026-05-04 20:39 | 53.97962 | 21.15536 | 34955 ft | 502 kts | 72° |
| 2026-05-04 20:40 | 54.00008 | 21.26897 | 34952 ft | 503 kts | 72° |
| 2026-05-04 20:40 | 54.02063 | 21.38288 | 34951 ft | 503 kts | 72° |
| 2026-05-04 20:41 | 54.04099 | 21.49630 | 34948 ft | 503 kts | 72° |
| 2026-05-04 20:41 | 54.06133 | 21.61050 | 34929 ft | 503 kts | 72° |
| 2026-05-04 20:42 | 54.08153 | 21.72476 | 34951 ft | 503 kts | 72° |
| 2026-05-04 20:42 | 54.10148 | 21.83854 | 34964 ft | 503 kts | 72° |
| 2026-05-04 20:43 | 54.12146 | 21.95318 | 34967 ft | 502 kts | 72° |
| 2026-05-04 20:43 | 54.14127 | 22.06752 | 34963 ft | 502 kts | 72° |
| 2026-05-04 20:44 | 54.16083 | 22.18124 | 34963 ft | 502 kts | 72° |
| 2026-05-04 20:44 | 54.18042 | 22.29562 | 34955 ft | 502 kts | 72° |
| 2026-05-04 20:45 | 54.19976 | 22.40971 | 34975 ft | 492 kts | 72° |
| 2026-05-04 20:45 | 54.20909 | 22.46505 | 34655 ft | 492 kts | 72° |
| 2026-05-04 20:45 | 54.21865 | 22.52187 | 33547 ft | 500 kts | 72° |
| 2026-05-04 20:46 | 54.22827 | 22.57920 | 32687 ft | 499 kts | 72° |
| 2026-05-04 20:46 | 54.23779 | 22.63608 | 32014 ft | 496 kts | 72° |
| 2026-05-04 20:46 | 54.24718 | 22.69248 | 31405 ft | 491 kts | 73° |
| 2026-05-04 20:46 | 54.25650 | 22.74851 | 30821 ft | 486 kts | 73° |
| 2026-05-04 20:47 | 54.26568 | 22.80381 | 30254 ft | 482 kts | 73° |
| 2026-05-04 20:47 | 54.27477 | 22.85877 | 29652 ft | 477 kts | 73° |
| 2026-05-04 20:47 | 54.28371 | 22.91297 | 28801 ft | 469 kts | 73° |
| 2026-05-04 20:47 | 54.29246 | 22.96638 | 27783 ft | 462 kts | 74° |
| 2026-05-04 20:48 | 54.30105 | 23.01913 | 26823 ft | 455 kts | 74° |
| 2026-05-04 20:48 | 54.30948 | 23.07098 | 26031 ft | 449 kts | 74° |
| 2026-05-04 20:48 | 54.31758 | 23.12153 | 25614 ft | 443 kts | 75° |
| 2026-05-04 20:48 | 54.32555 | 23.17223 | 25176 ft | 438 kts | 75° |
| 2026-05-04 20:49 | 54.33337 | 23.22254 | 24673 ft | 436 kts | 75° |
| 2026-05-04 20:49 | 54.34110 | 23.27271 | 24205 ft | 433 kts | 76° |
| 2026-05-04 20:49 | 54.34877 | 23.32263 | 23715 ft | 431 kts | 76° |
| 2026-05-04 20:49 | 54.35639 | 23.37211 | 23187 ft | 429 kts | 76° |
| 2026-05-04 20:50 | 54.36398 | 23.42134 | 22694 ft | 425 kts | 76° |
| 2026-05-04 20:50 | 54.37144 | 23.46968 | 22210 ft | 422 kts | 76° |
| 2026-05-04 20:50 | 54.37889 | 23.51811 | 21733 ft | 419 kts | 76° |
| 2026-05-04 20:50 | 54.38624 | 23.56627 | 21258 ft | 416 kts | 76° |
| 2026-05-04 20:51 | 54.39352 | 23.61420 | 20777 ft | 413 kts | 76° |
| 2026-05-04 20:51 | 54.40074 | 23.66178 | 20308 ft | 410 kts | 76° |
| 2026-05-04 20:51 | 54.40793 | 23.70922 | 19836 ft | 408 kts | 76° |
| 2026-05-04 20:51 | 54.41498 | 23.75571 | 19372 ft | 406 kts | 76° |
| 2026-05-04 20:52 | 54.42210 | 23.80260 | 18914 ft | 404 kts | 76° |
| 2026-05-04 20:52 | 54.42914 | 23.84921 | 18454 ft | 402 kts | 76° |
| 2026-05-04 20:52 | 54.43610 | 23.89562 | 17966 ft | 401 kts | 76° |
| 2026-05-04 20:52 | 54.44299 | 23.94182 | 17524 ft | 397 kts | 76° |
| 2026-05-04 20:53 | 54.44979 | 23.98772 | 17056 ft | 395 kts | 76° |
| 2026-05-04 20:53 | 54.45656 | 24.03340 | 16610 ft | 392 kts | 76° |
| 2026-05-04 20:53 | 54.46324 | 24.07876 | 16176 ft | 390 kts | 76° |
| 2026-05-04 20:53 | 54.46986 | 24.12398 | 15740 ft | 388 kts | 76° |
| 2026-05-04 20:54 | 54.47634 | 24.16833 | 15314 ft | 386 kts | 76° |
| 2026-05-04 20:54 | 54.48291 | 24.21312 | 14884 ft | 384 kts | 76° |
| 2026-05-04 20:54 | 54.48948 | 24.25759 | 14456 ft | 383 kts | 76° |
| 2026-05-04 20:54 | 54.49601 | 24.30194 | 14016 ft | 381 kts | 76° |
| 2026-05-04 20:55 | 54.50247 | 24.34613 | 13580 ft | 379 kts | 76° |
| 2026-05-04 20:55 | 54.50879 | 24.38957 | 13126 ft | 377 kts | 76° |
| 2026-05-04 20:55 | 54.51512 | 24.43330 | 12704 ft | 374 kts | 76° |
| 2026-05-04 20:55 | 54.52138 | 24.47666 | 12275 ft | 371 kts | 76° |
| 2026-05-04 20:56 | 54.52746 | 24.51922 | 12119 ft | 360 kts | 76° |
| 2026-05-04 20:56 | 54.53338 | 24.56052 | 11985 ft | 349 kts | 76° |
| 2026-05-04 20:56 | 54.53910 | 24.60023 | 11766 ft | 342 kts | 76° |
| 2026-05-04 20:56 | 54.54479 | 24.63990 | 11434 ft | 339 kts | 76° |
| 2026-05-04 20:57 | 54.55042 | 24.67928 | 11037 ft | 336 kts | 76° |
| 2026-05-04 20:57 | 54.55596 | 24.71823 | 10416 ft | 333 kts | 76° |
| 2026-05-04 20:57 | 54.56144 | 24.75701 | 9766 ft | 331 kts | 76° |
| 2026-05-04 20:57 | 54.56678 | 24.79509 | 9081 ft | 329 kts | 76° |
| 2026-05-04 20:58 | 54.57214 | 24.83331 | 8427 ft | 325 kts | 76° |
| 2026-05-04 20:58 | 54.57741 | 24.87075 | 7950 ft | 314 kts | 77° |
| 2026-05-04 20:58 | 54.58030 | 24.90674 | 7660 ft | 296 kts | 96° |
| 2026-05-04 20:58 | 54.57563 | 24.93990 | 7381 ft | 277 kts | 121° |
| 2026-05-04 20:59 | 54.56492 | 24.96707 | 7073 ft | 271 kts | 142° |
| 2026-05-04 20:59 | 54.55000 | 24.98584 | 6692 ft | 263 kts | 155° |
| 2026-05-04 20:59 | 54.53466 | 25.00194 | 6387 ft | 260 kts | 154° |
| 2026-05-04 20:59 | 54.51907 | 25.01841 | 5988 ft | 260 kts | 154° |
| 2026-05-04 21:00 | 54.50356 | 25.03481 | 5549 ft | 261 kts | 154° |
| 2026-05-04 21:00 | 54.48902 | 25.05394 | 5107 ft | 269 kts | 137° |
| 2026-05-04 21:00 | 54.47838 | 25.07965 | 4817 ft | 269 kts | 120° |
| 2026-05-04 21:00 | 54.47111 | 25.10938 | 4380 ft | 270 kts | 114° |
| 2026-05-04 21:01 | 54.46606 | 25.14018 | 4149 ft | 264 kts | 90° |
| 2026-05-04 21:01 | 54.47101 | 25.16928 | 3969 ft | 251 kts | 51° |
| 2026-05-04 21:01 | 54.48440 | 25.18692 | 3539 ft | 242 kts | 13° |
| 2026-05-04 21:01 | 54.50025 | 25.19400 | 3200 ft | 235 kts | 13° |
| 2026-05-04 21:02 | 54.51531 | 25.20352 | 2897 ft | 226 kts | 17° |
| 2026-05-04 21:02 | 54.52962 | 25.21349 | 2602 ft | 217 kts | 18° |
| 2026-05-04 21:02 | 54.54327 | 25.22298 | 2319 ft | 205 kts | 18° |
| 2026-05-04 21:02 | 54.55584 | 25.23169 | 2082 ft | 184 kts | 17° |
| 2026-05-04 21:03 | 54.56716 | 25.23952 | 1811 ft | 166 kts | 16° |
| 2026-05-04 21:03 | 54.57723 | 25.24648 | 1629 ft | 148 kts | 15° |
| 2026-05-04 21:03 | 54.58655 | 25.25290 | 1421 ft | 142 kts | 17° |
| 2026-05-04 21:03 | 54.59566 | 25.25908 | 1227 ft | 139 kts | 17° |
| 2026-05-04 21:04 | 54.60446 | 25.26515 | 1060 ft | 138 kts | 18° |
| 2026-05-04 21:04 | 54.61341 | 25.27144 | 872 ft | 138 kts | 18° |
| 2026-05-04 21:04 | 54.62234 | 25.27751 | 680 ft | 137 kts | 20° |
| 2026-05-04 21:04 | 54.63080 | 25.28343 | 609 ft | 119 kts | 23° |
| 2026-05-04 21:05 | 54.63703 | 25.28783 | 632 ft | 78 kts | 22° |
| 2026-05-04 21:05 | 54.64123 | 25.29066 | 648 ft | 48 kts | 22° |
| 2026-05-04 21:05 | 54.64337 | 25.29212 | 655 ft | 23 kts | 23° |
| 2026-05-04 21:05 | 54.64468 | 25.29217 | 657 ft | 14 kts | 319° |
| 2026-05-04 21:06 | 54.64514 | 25.29075 | 657 ft | 14 kts | 297° |
| 2026-05-04 21:06 | 54.64559 | 25.28917 | 657 ft | 15 kts | 295° |
| 2026-05-04 21:06 | 54.64549 | 25.28772 | 658 ft | 11 kts | 259° |
| 2026-05-04 21:06 | 54.64534 | 25.28639 | 653 ft | 10 kts | 258° |
| 2026-05-04 21:07 | 54.64547 | 25.28569 | 652 ft | 7 kts | 313° |
| 2026-05-04 21:07 | 54.64580 | 25.28544 | 650 ft | 5 kts | 304° |
| 2026-05-04 21:07 | 54.64576 | 25.28465 | 647 ft | 9 kts | 256° |
| 2026-05-04 21:07 | 54.64558 | 25.28337 | 641 ft | 10 kts | 256° |
| 2026-05-04 21:08 | 54.64533 | 25.28276 | 640 ft | 5 kts | 199° |
| 2026-05-04 21:08 | 54.64514 | 25.28277 | 639 ft | 2 kts | 179° |
| 2026-05-04 21:08 | 54.64500 | 25.28274 | 640 ft | 2 kts | 198° |
| 2026-05-04 21:08 | 54.64491 | 25.28238 | 640 ft | 4 kts | 263° |
| 2026-05-04 21:09 | 54.64491 | 25.28202 | 637 ft | 3 kts | 271° |
| 2026-05-04 21:09 | 54.64492 | 25.28192 | 637 ft | 0 kts | 270° |
| 2026-05-04 21:09 | 54.64492 | 25.28188 | 637 ft | 0 kts | 270° |